createdAt,value
2017-01-02T00:00:17.449Z,0
2017-01-02T00:01:18.453Z,0
2017-01-02T00:02:17.410Z,0
2017-01-02T00:03:17.393Z,0
2017-01-02T00:04:17.653Z,0
2017-01-02T00:05:17.347Z,0
2017-01-02T00:06:17.356Z,0
2017-01-02T00:07:17.587Z,0
2017-01-02T00:08:17.288Z,0
2017-01-02T00:09:17.270Z,0
2017-01-02T00:10:17.569Z,0
2017-01-02T00:11:17.231Z,0
2017-01-02T00:12:17.211Z,0
2017-01-02T00:13:17.466Z,0
2017-01-02T00:14:17.167Z,0
2017-01-02T00:15:17.161Z,0
2017-01-02T00:16:17.800Z,0
2017-01-02T00:17:17.111Z,0
2017-01-02T00:18:17.093Z,0
2017-01-02T00:19:17.513Z,0
2017-01-02T00:20:17.052Z,0
2017-01-02T00:21:17.032Z,0
2017-01-02T00:22:17.406Z,0
2017-01-02T00:23:16.995Z,0
2017-01-02T00:24:16.973Z,0
2017-01-02T00:25:17.388Z,0
2017-01-02T00:26:16.938Z,0
2017-01-02T00:27:16.914Z,0
2017-01-02T00:28:16.897Z,0
2017-01-02T00:29:16.879Z,0
2017-01-02T00:30:16.854Z,0
2017-01-02T00:31:16.989Z,0
2017-01-02T00:32:16.824Z,0
2017-01-02T00:33:16.801Z,0
2017-01-02T00:34:16.919Z,0
2017-01-02T00:35:16.759Z,0
2017-01-02T00:36:16.737Z,0
2017-01-02T00:37:16.852Z,0
2017-01-02T00:38:16.707Z,0
2017-01-02T00:39:16.679Z,0
2017-01-02T00:40:16.828Z,0
2017-01-02T00:41:16.646Z,0
2017-01-02T00:42:16.814Z,0
2017-01-02T00:43:16.604Z,0
2017-01-02T00:44:17.382Z,0
2017-01-02T00:45:16.562Z,0
2017-01-02T00:46:16.574Z,0
2017-01-02T00:47:17.045Z,0
2017-01-02T00:48:16.510Z,0
2017-01-02T00:49:16.491Z,0
2017-01-02T00:50:17.392Z,0
2017-01-02T00:51:16.450Z,0
2017-01-02T00:52:16.827Z,0
2017-01-02T00:53:17.391Z,0
2017-01-02T00:54:16.390Z,0
2017-01-02T00:55:16.374Z,0
2017-01-02T00:56:17.070Z,0
2017-01-02T00:57:16.330Z,0
2017-01-02T00:58:16.315Z,0
2017-01-02T00:59:16.714Z,0
2017-01-02T01:00:16.281Z,0
2017-01-02T01:01:16.259Z,0
2017-01-02T01:02:16.891Z,0
2017-01-02T01:03:16.218Z,0
2017-01-02T01:04:16.199Z,0
2017-01-02T01:05:16.801Z,0
2017-01-02T01:06:16.164Z,0
2017-01-02T01:07:16.143Z,0
2017-01-02T01:08:16.281Z,0
2017-01-02T01:09:17.062Z,0
2017-01-02T01:10:16.086Z,0
2017-01-02T01:11:16.069Z,0
2017-01-02T01:12:16.048Z,0
2017-01-02T01:13:16.172Z,0
2017-01-02T01:14:16.019Z,0
2017-01-02T01:15:15.994Z,0
2017-01-02T01:16:16.106Z,0
2017-01-02T01:17:15.953Z,0
2017-01-02T01:18:15.934Z,0
2017-01-02T01:19:16.262Z,0
2017-01-02T01:20:15.902Z,0
2017-01-02T01:21:16.225Z,0
2017-01-02T01:22:15.857Z,0
2017-01-02T01:23:16.837Z,0
2017-01-02T01:24:15.821Z,0
2017-01-02T01:25:15.805Z,0
2017-01-02T01:26:17.008Z,0
2017-01-02T01:27:15.763Z,0
2017-01-02T01:28:15.746Z,0
2017-01-02T01:29:16.379Z,0
2017-01-02T01:30:15.711Z,0
2017-01-02T01:31:16.226Z,0
2017-01-02T01:32:15.670Z,0
2017-01-02T01:33:15.648Z,0
2017-01-02T01:34:16.259Z,0
2017-01-02T01:35:15.611Z,0
2017-01-02T01:36:15.592Z,0
2017-01-02T01:37:16.423Z,0
2017-01-02T01:38:15.555Z,0
2017-01-02T01:39:15.546Z,0
2017-01-02T01:40:16.129Z,0
2017-01-02T01:41:15.496Z,0
2017-01-02T01:42:15.480Z,0
2017-01-02T01:43:15.462Z,0
2017-01-02T01:44:15.438Z,0
2017-01-02T01:45:15.420Z,0
2017-01-02T01:46:15.429Z,0
2017-01-02T01:47:15.380Z,0
2017-01-02T01:48:15.375Z,0
2017-01-02T01:49:15.350Z,0
2017-01-02T01:50:16.161Z,0
2017-01-02T01:51:15.313Z,0
2017-01-02T01:52:15.290Z,0
2017-01-02T01:53:15.602Z,0
2017-01-02T01:54:15.254Z,0
2017-01-02T01:55:15.233Z,0
2017-01-02T01:56:15.464Z,0
2017-01-02T01:57:15.192Z,0
2017-01-02T01:58:15.184Z,0
2017-01-02T01:59:15.401Z,0
2017-01-02T02:00:15.144Z,0
2017-01-02T02:01:15.152Z,0
2017-01-02T02:02:15.383Z,0
2017-01-02T02:03:15.078Z,0
2017-01-02T02:04:15.066Z,0
2017-01-02T02:05:15.788Z,0
2017-01-02T02:06:15.344Z,0
2017-01-02T02:07:15.006Z,0
2017-01-02T02:08:14.986Z,0
2017-01-02T02:09:15.096Z,0
2017-01-02T02:10:14.963Z,0
2017-01-02T02:11:14.935Z,0
2017-01-02T02:12:15.228Z,0
2017-01-02T02:13:14.904Z,0
2017-01-02T02:14:14.873Z,0
2017-01-02T02:15:14.856Z,0
2017-01-02T02:16:14.836Z,0
2017-01-02T02:17:14.820Z,0
2017-01-02T02:18:14.802Z,0
2017-01-02T02:19:15.708Z,0
2017-01-02T02:20:14.761Z,0
2017-01-02T02:21:14.744Z,0
2017-01-02T02:22:14.728Z,0
2017-01-02T02:23:15.286Z,0
2017-01-02T02:24:14.699Z,0
2017-01-02T02:25:14.666Z,0
2017-01-02T02:26:14.650Z,0
2017-01-02T02:27:14.629Z,0
2017-01-02T02:28:14.614Z,0
2017-01-02T02:29:14.783Z,0
2017-01-02T02:30:14.576Z,0
2017-01-02T02:31:14.555Z,0
2017-01-02T02:32:14.807Z,0
2017-01-02T02:33:14.519Z,0
2017-01-02T02:34:14.497Z,0
2017-01-02T02:35:14.487Z,0
2017-01-02T02:36:15.139Z,0
2017-01-02T02:37:14.445Z,0
2017-01-02T02:38:14.425Z,0
2017-01-02T02:39:15.378Z,0
2017-01-02T02:40:14.389Z,0
2017-01-02T02:41:14.365Z,0
2017-01-02T02:42:15.474Z,0
2017-01-02T02:43:14.337Z,0
2017-01-02T02:44:14.309Z,0
2017-01-02T02:45:15.117Z,0
2017-01-02T02:46:15.065Z,0
2017-01-02T02:47:14.252Z,0
2017-01-02T02:48:14.264Z,0
2017-01-02T02:49:15.099Z,0
2017-01-02T02:50:14.202Z,0
2017-01-02T02:51:14.179Z,0
2017-01-02T02:52:14.858Z,0
2017-01-02T02:53:14.143Z,0
2017-01-02T02:54:14.118Z,0
2017-01-02T02:55:14.840Z,0
2017-01-02T02:56:15.698Z,0
2017-01-02T02:57:14.062Z,0
2017-01-02T02:58:14.043Z,0
2017-01-02T02:59:14.985Z,0
2017-01-02T03:00:14.056Z,0
2017-01-02T03:01:13.987Z,0
2017-01-02T03:02:14.678Z,0
2017-01-02T03:03:13.945Z,0
2017-01-02T03:04:13.926Z,0
2017-01-02T03:05:13.909Z,0
2017-01-02T03:06:13.889Z,0
2017-01-02T03:07:13.866Z,0
2017-01-02T03:08:13.850Z,0
2017-01-02T03:09:13.830Z,0
2017-01-02T03:10:13.812Z,0
2017-01-02T03:11:13.789Z,0
2017-01-02T03:12:13.773Z,0
2017-01-02T03:13:13.750Z,0
2017-01-02T03:14:13.728Z,0
2017-01-02T03:15:13.712Z,0
2017-01-02T03:16:13.690Z,0
2017-01-02T03:17:13.674Z,0
2017-01-02T03:18:13.656Z,0
2017-01-02T03:19:13.634Z,0
2017-01-02T03:20:13.613Z,0
2017-01-02T03:21:13.627Z,0
2017-01-02T03:22:13.604Z,0
2017-01-02T03:23:13.558Z,0
2017-01-02T03:24:13.535Z,0
2017-01-02T03:25:13.519Z,0
2017-01-02T03:26:13.497Z,0
2017-01-02T03:27:13.474Z,0
2017-01-02T03:28:13.462Z,0
2017-01-02T03:29:13.454Z,0
2017-01-02T03:30:13.432Z,0
2017-01-02T03:31:13.400Z,0
2017-01-02T03:32:13.379Z,0
2017-01-02T03:33:13.362Z,0
2017-01-02T03:34:13.344Z,0
2017-01-02T03:35:13.325Z,0
2017-01-02T03:36:13.300Z,0
2017-01-02T03:37:13.283Z,0
2017-01-02T03:38:13.265Z,0
2017-01-02T03:39:13.245Z,0
2017-01-02T03:40:13.226Z,0
2017-01-02T03:41:13.231Z,0
2017-01-02T03:42:13.184Z,0
2017-01-02T03:43:13.168Z,0
2017-01-02T03:44:13.151Z,0
2017-01-02T03:45:13.124Z,0
2017-01-02T03:46:13.103Z,0
2017-01-02T03:47:13.086Z,0
2017-01-02T03:48:13.074Z,0
2017-01-02T03:49:13.045Z,0
2017-01-02T03:50:13.033Z,0
2017-01-02T03:51:13.012Z,0
2017-01-02T03:52:12.991Z,0
2017-01-02T03:53:12.972Z,0
2017-01-02T03:54:12.959Z,0
2017-01-02T03:55:12.931Z,0
2017-01-02T03:56:12.916Z,0
2017-01-02T03:57:12.890Z,0
2017-01-02T03:58:12.875Z,0
2017-01-02T03:59:12.860Z,0
2017-01-02T04:00:12.833Z,0
2017-01-02T04:01:12.815Z,0
2017-01-02T04:02:12.791Z,0
2017-01-02T04:03:12.770Z,0
2017-01-02T04:04:13.154Z,0
2017-01-02T04:05:12.733Z,0
2017-01-02T04:06:12.716Z,0
2017-01-02T04:07:12.692Z,0
2017-01-02T04:08:12.674Z,0
2017-01-02T04:09:12.657Z,0
2017-01-02T04:10:12.636Z,0
2017-01-02T04:11:12.615Z,0
2017-01-02T04:12:12.595Z,0
2017-01-02T04:13:12.579Z,0
2017-01-02T04:14:12.560Z,0
2017-01-02T04:15:12.536Z,0
2017-01-02T04:16:12.531Z,0
2017-01-02T04:17:12.499Z,0
2017-01-02T04:18:12.479Z,0
2017-01-02T04:19:12.461Z,0
2017-01-02T04:20:12.443Z,0
2017-01-02T04:21:12.420Z,0
2017-01-02T04:22:12.402Z,0
2017-01-02T04:23:12.381Z,0
2017-01-02T04:24:12.359Z,0
2017-01-02T04:25:12.345Z,0
2017-01-02T04:26:12.323Z,0
2017-01-02T04:27:12.303Z,0
2017-01-02T04:28:12.288Z,0
2017-01-02T04:29:12.268Z,0
2017-01-02T04:30:12.246Z,0
2017-01-02T04:31:12.625Z,0
2017-01-02T04:32:12.605Z,0
2017-01-02T04:33:12.187Z,0
2017-01-02T04:34:12.165Z,0
2017-01-02T04:35:12.149Z,0
2017-01-02T04:36:12.126Z,0
2017-01-02T04:37:12.150Z,0
2017-01-02T04:38:12.093Z,0
2017-01-02T04:39:12.072Z,0
2017-01-02T04:40:12.050Z,0
2017-01-02T04:41:12.039Z,0
2017-01-02T04:42:12.013Z,0
2017-01-02T04:43:11.991Z,0
2017-01-02T04:44:11.975Z,0
2017-01-02T04:45:11.982Z,0
2017-01-02T04:46:11.959Z,0
2017-01-02T04:47:11.917Z,0
2017-01-02T04:48:11.897Z,0
2017-01-02T04:49:11.876Z,0
2017-01-02T04:50:11.856Z,0
2017-01-02T04:51:11.838Z,0
2017-01-02T04:52:11.822Z,0
2017-01-02T04:53:11.797Z,0
2017-01-02T04:54:11.780Z,0
2017-01-02T04:55:11.760Z,0
2017-01-02T04:56:11.740Z,0
2017-01-02T04:57:11.721Z,0
2017-01-02T04:58:11.730Z,0
2017-01-02T04:59:11.680Z,0
2017-01-02T05:00:11.667Z,0
2017-01-02T05:01:11.642Z,0
2017-01-02T05:02:11.620Z,0
2017-01-02T05:03:11.609Z,0
2017-01-02T05:04:11.585Z,0
2017-01-02T05:05:11.971Z,0
2017-01-02T05:06:11.546Z,0
2017-01-02T05:07:11.530Z,0
2017-01-02T05:08:11.507Z,0
2017-01-02T05:09:11.488Z,0
2017-01-02T05:10:11.467Z,0
2017-01-02T05:11:11.453Z,0
2017-01-02T05:12:11.428Z,0
2017-01-02T05:13:11.415Z,0
2017-01-02T05:14:11.425Z,0
2017-01-02T05:15:11.373Z,0
2017-01-02T05:16:11.352Z,0
2017-01-02T05:17:11.336Z,0
2017-01-02T05:18:11.313Z,0
2017-01-02T05:19:11.292Z,0
2017-01-02T05:20:11.277Z,0
2017-01-02T05:21:11.253Z,0
2017-01-02T05:22:11.234Z,0
2017-01-02T05:23:11.219Z,0
2017-01-02T05:24:11.199Z,0
2017-01-02T05:25:11.180Z,0
2017-01-02T05:26:11.162Z,0
2017-01-02T05:27:11.138Z,0
2017-01-02T05:28:11.146Z,0
2017-01-02T05:29:11.101Z,0
2017-01-02T05:30:11.082Z,0
2017-01-02T05:31:11.059Z,0
2017-01-02T05:32:11.046Z,0
2017-01-02T05:33:11.021Z,0
2017-01-02T05:34:11.004Z,0
2017-01-02T05:35:10.986Z,0
2017-01-02T05:36:10.964Z,0
2017-01-02T05:37:10.945Z,0
2017-01-02T05:38:10.924Z,0
2017-01-02T05:39:10.904Z,0
2017-01-02T05:40:10.889Z,0
2017-01-02T05:41:10.869Z,0
2017-01-02T05:42:10.848Z,0
2017-01-02T05:43:10.830Z,0
2017-01-02T05:44:10.821Z,0
2017-01-02T05:45:10.794Z,0
2017-01-02T05:46:10.767Z,0
2017-01-02T05:47:10.751Z,0
2017-01-02T05:48:10.731Z,0
2017-01-02T05:49:10.718Z,0
2017-01-02T05:50:10.698Z,0
2017-01-02T05:51:10.674Z,0
2017-01-02T05:52:10.657Z,0
2017-01-02T05:53:10.642Z,0
2017-01-02T05:54:10.615Z,0
2017-01-02T05:55:10.602Z,0
2017-01-02T05:56:10.578Z,0
2017-01-02T05:57:10.559Z,0
2017-01-02T05:58:10.575Z,0
2017-01-02T05:59:10.519Z,0
2017-01-02T06:00:10.499Z,0
2017-01-02T06:01:10.477Z,0
2017-01-02T06:02:10.470Z,0
2017-01-02T06:03:10.442Z,0
2017-01-02T06:04:10.430Z,0
2017-01-02T06:05:10.403Z,0
2017-01-02T06:06:10.381Z,0
2017-01-02T06:07:10.363Z,0
2017-01-02T06:08:10.346Z,0
2017-01-02T06:09:10.324Z,0
2017-01-02T06:10:10.306Z,0
2017-01-02T06:11:10.291Z,0
2017-01-02T06:12:10.267Z,0
2017-01-02T06:13:10.247Z,0
2017-01-02T06:14:10.234Z,0
2017-01-02T06:15:10.215Z,0
2017-01-02T06:16:10.190Z,0
2017-01-02T06:17:10.166Z,0
2017-01-02T06:18:10.153Z,0
2017-01-02T06:19:10.128Z,0
2017-01-02T06:20:10.114Z,0
2017-01-02T06:21:10.096Z,0
2017-01-02T06:22:10.079Z,0
2017-01-02T06:23:10.051Z,0
2017-01-02T06:24:10.042Z,0
2017-01-02T06:25:10.022Z,0
2017-01-02T06:26:09.994Z,0
2017-01-02T06:27:09.974Z,0
2017-01-02T06:28:09.957Z,0
2017-01-02T06:29:09.936Z,0
2017-01-02T06:30:09.920Z,0
2017-01-02T06:31:09.933Z,0
2017-01-02T06:32:09.878Z,0
2017-01-02T06:33:09.861Z,0
2017-01-02T06:34:09.842Z,0
2017-01-02T06:35:09.821Z,0
2017-01-02T06:36:09.817Z,0
2017-01-02T06:37:09.785Z,0
2017-01-02T06:38:09.767Z,0
2017-01-02T06:39:09.743Z,0
2017-01-02T06:40:09.726Z,0
2017-01-02T06:41:09.717Z,0
2017-01-02T06:42:09.694Z,4
2017-01-02T06:43:09.669Z,0
2017-01-02T06:44:09.642Z,4
2017-01-02T06:45:09.630Z,4
2017-01-02T06:46:09.607Z,0
2017-01-02T06:47:09.587Z,4
2017-01-02T06:48:09.571Z,4
2017-01-02T06:49:09.543Z,4
2017-01-02T06:50:09.532Z,4
2017-01-02T06:51:09.511Z,4
2017-01-02T06:52:09.489Z,4
2017-01-02T06:53:09.469Z,8
2017-01-02T06:54:09.453Z,8
2017-01-02T06:55:09.428Z,12
2017-01-02T06:56:09.408Z,12
2017-01-02T06:57:09.388Z,16
2017-01-02T06:58:09.372Z,16
2017-01-02T06:59:09.750Z,24
2017-01-02T07:00:09.336Z,20
2017-01-02T07:01:09.311Z,20
2017-01-02T07:02:09.296Z,20
2017-01-02T07:03:09.277Z,24
2017-01-02T07:04:09.286Z,24
2017-01-02T07:05:09.234Z,28
2017-01-02T07:06:09.213Z,32
2017-01-02T07:07:09.194Z,32
2017-01-02T07:08:09.175Z,36
2017-01-02T07:09:09.157Z,44
2017-01-02T07:10:09.141Z,48
2017-01-02T07:11:09.117Z,48
2017-01-02T07:12:09.092Z,48
2017-01-02T07:13:09.477Z,44
2017-01-02T07:14:09.064Z,40
2017-01-02T07:15:09.044Z,44
2017-01-02T07:16:09.026Z,52
2017-01-02T07:17:08.997Z,64
2017-01-02T07:18:08.979Z,76
2017-01-02T07:19:08.963Z,68
2017-01-02T07:20:08.941Z,64
2017-01-02T07:21:08.923Z,64
2017-01-02T07:22:08.901Z,64
2017-01-02T07:23:08.886Z,68
2017-01-02T07:24:08.863Z,80
2017-01-02T07:25:08.847Z,88
2017-01-02T07:26:08.826Z,100
2017-01-02T07:27:08.811Z,100
2017-01-02T07:28:08.797Z,104
2017-01-02T07:29:08.909Z,140
2017-01-02T07:30:08.759Z,164
2017-01-02T07:31:08.752Z,172
2017-01-02T07:32:08.803Z,176
2017-01-02T07:33:08.741Z,164
2017-01-02T07:34:08.668Z,172
2017-01-02T07:35:08.661Z,192
2017-01-02T07:36:08.631Z,232
2017-01-02T07:37:08.630Z,252
2017-01-02T07:38:08.587Z,256
2017-01-02T07:39:08.566Z,248
2017-01-02T07:40:08.557Z,248
2017-01-02T07:41:08.529Z,240
2017-01-02T07:42:08.507Z,232
2017-01-02T07:43:08.489Z,244
2017-01-02T07:44:08.471Z,260
2017-01-02T07:45:08.461Z,260
2017-01-02T07:46:08.430Z,260
2017-01-02T07:47:08.413Z,272
2017-01-02T07:48:08.392Z,264
2017-01-02T07:49:08.370Z,244
2017-01-02T07:50:08.354Z,256
2017-01-02T07:51:08.336Z,272
2017-01-02T07:52:08.315Z,288
2017-01-02T07:53:08.293Z,304
2017-01-02T07:54:08.276Z,300
2017-01-02T07:55:08.253Z,284
2017-01-02T07:56:08.239Z,304
2017-01-02T07:57:08.214Z,312
2017-01-02T07:58:08.190Z,320
2017-01-02T07:59:08.204Z,344
2017-01-02T08:00:08.161Z,384
2017-01-02T08:01:08.138Z,408
2017-01-02T08:02:08.115Z,436
2017-01-02T08:03:08.098Z,416
2017-01-02T08:04:08.077Z,388
2017-01-02T08:05:08.061Z,348
2017-01-02T08:06:08.039Z,328
2017-01-02T08:07:08.021Z,344
2017-01-02T08:08:08.028Z,408
2017-01-02T08:09:07.983Z,440
2017-01-02T08:10:07.962Z,468
2017-01-02T08:11:07.941Z,476
2017-01-02T08:12:07.927Z,488
2017-01-02T08:13:07.901Z,540
2017-01-02T08:14:08.279Z,652
2017-01-02T08:15:07.869Z,788
2017-01-02T08:16:07.845Z,820
2017-01-02T08:17:07.828Z,808
2017-01-02T08:18:07.895Z,800
2017-01-02T08:19:07.818Z,764
2017-01-02T08:20:07.770Z,724
2017-01-02T08:21:08.146Z,704
2017-01-02T08:22:07.724Z,684
2017-01-02T08:23:07.706Z,680
2017-01-02T08:24:07.688Z,708
2017-01-02T08:25:07.707Z,744
2017-01-02T08:26:07.653Z,760
2017-01-02T08:27:07.627Z,804
2017-01-02T08:28:07.615Z,856
2017-01-02T08:29:07.589Z,892
2017-01-02T08:30:07.571Z,936
2017-01-02T08:31:07.556Z,1000
2017-01-02T08:32:07.533Z,1028
2017-01-02T08:33:07.521Z,1036
2017-01-02T08:34:07.493Z,1020
2017-01-02T08:35:07.473Z,1008
2017-01-02T08:36:07.454Z,948
2017-01-02T08:37:07.434Z,876
2017-01-02T08:38:07.416Z,832
2017-01-02T08:39:07.482Z,860
2017-01-02T08:40:07.374Z,844
2017-01-02T08:41:07.357Z,856
2017-01-02T08:42:07.336Z,888
2017-01-02T08:43:07.322Z,888
2017-01-02T08:44:07.297Z,852
2017-01-02T08:45:07.287Z,864
2017-01-02T08:46:07.264Z,856
2017-01-02T08:47:07.255Z,880
2017-01-02T08:48:07.222Z,872
2017-01-02T08:49:07.201Z,848
2017-01-02T08:50:07.185Z,844
2017-01-02T08:51:07.179Z,824
2017-01-02T08:52:07.142Z,824
2017-01-02T08:53:07.122Z,916
2017-01-02T08:54:07.106Z,972
2017-01-02T08:55:07.086Z,1000
2017-01-02T08:56:07.068Z,1040
2017-01-02T08:57:07.044Z,1068
2017-01-02T08:58:07.031Z,1040
2017-01-02T08:59:07.011Z,976
2017-01-02T09:00:06.991Z,940
2017-01-02T09:01:06.968Z,920
2017-01-02T09:02:06.949Z,896
2017-01-02T09:03:06.933Z,920
2017-01-02T09:04:06.911Z,936
2017-01-02T09:05:06.890Z,968
2017-01-02T09:06:06.874Z,1020
2017-01-02T09:07:06.850Z,1104
2017-01-02T09:08:06.836Z,1184
2017-01-02T09:09:06.847Z,1248
2017-01-02T09:10:06.911Z,1328
2017-01-02T09:11:06.881Z,1416
2017-01-02T09:12:07.160Z,1496
2017-01-02T09:13:06.739Z,1548
2017-01-02T09:14:06.866Z,1632
2017-01-02T09:15:08.150Z,1692
2017-01-02T09:16:06.689Z,1664
2017-01-02T09:17:07.139Z,1560
2017-01-02T09:18:06.754Z,1464
2017-01-02T09:19:06.627Z,1404
2017-01-02T09:20:06.793Z,1372
2017-01-02T09:21:07.237Z,1332
2017-01-02T09:22:06.629Z,1332
2017-01-02T09:23:06.552Z,1336
2017-01-02T09:24:06.585Z,1352
2017-01-02T09:25:06.667Z,1412
2017-01-02T09:26:06.487Z,1460
2017-01-02T09:27:06.476Z,1492
2017-01-02T09:28:06.634Z,1528
2017-01-02T09:29:06.431Z,1576
2017-01-02T09:30:06.415Z,1636
2017-01-02T09:31:06.396Z,1680
2017-01-02T09:32:06.745Z,1688
2017-01-02T09:33:06.361Z,1644
2017-01-02T09:34:06.338Z,1628
2017-01-02T09:35:06.318Z,1604
2017-01-02T09:36:06.295Z,1608
2017-01-02T09:37:06.290Z,1600
2017-01-02T09:38:06.264Z,1580
2017-01-02T09:39:06.384Z,1548
2017-01-02T09:40:06.219Z,1524
2017-01-02T09:41:06.204Z,1516
2017-01-02T09:42:06.189Z,1532
2017-01-02T09:43:06.166Z,1556
2017-01-02T09:44:06.144Z,1588
2017-01-02T09:45:06.533Z,1624
2017-01-02T09:46:06.109Z,1656
2017-01-02T09:47:06.414Z,1652
2017-01-02T09:48:06.064Z,1612
2017-01-02T09:49:06.060Z,1604
2017-01-02T09:50:06.034Z,1596
2017-01-02T09:51:06.348Z,1632
2017-01-02T09:52:06.054Z,1648
2017-01-02T09:53:05.982Z,1668
2017-01-02T09:54:06.106Z,1648
2017-01-02T09:55:06.416Z,1640
2017-01-02T09:56:06.208Z,1656
2017-01-02T09:57:06.044Z,1696
2017-01-02T09:58:05.902Z,1748
2017-01-02T09:59:06.149Z,1812
2017-01-02T10:00:05.841Z,1912
2017-01-02T10:01:05.837Z,2012
2017-01-02T10:02:05.808Z,2096
2017-01-02T10:03:05.788Z,2156
2017-01-02T10:04:06.004Z,2296
2017-01-02T10:05:05.755Z,2388
2017-01-02T10:06:05.728Z,2432
2017-01-02T10:07:05.707Z,2416
2017-01-02T10:08:05.903Z,2416
2017-01-02T10:09:05.915Z,2376
2017-01-02T10:10:05.678Z,2460
2017-01-02T10:11:05.638Z,2504
2017-01-02T10:12:05.629Z,2528
2017-01-02T10:13:05.617Z,2508
2017-01-02T10:14:05.588Z,2456
2017-01-02T10:15:05.580Z,2384
2017-01-02T10:16:05.544Z,2352
2017-01-02T10:17:05.534Z,2328
2017-01-02T10:18:05.515Z,2224
2017-01-02T10:19:05.485Z,2148
2017-01-02T10:20:05.467Z,2144
2017-01-02T10:21:05.446Z,2232
2017-01-02T10:22:05.528Z,2280
2017-01-02T10:23:05.691Z,2292
2017-01-02T10:24:05.390Z,2312
2017-01-02T10:25:05.374Z,2320
2017-01-02T10:26:05.362Z,2324
2017-01-02T10:27:05.739Z,2328
2017-01-02T10:28:05.316Z,2388
2017-01-02T10:29:05.300Z,2448
2017-01-02T10:30:05.282Z,2520
2017-01-02T10:31:05.259Z,2616
2017-01-02T10:32:05.252Z,2772
2017-01-02T10:33:05.223Z,2864
2017-01-02T10:34:05.506Z,2976
2017-01-02T10:35:05.542Z,3176
2017-01-02T10:36:05.594Z,3388
2017-01-02T10:37:05.728Z,3496
2017-01-02T10:38:05.536Z,3496
2017-01-02T10:39:05.514Z,3444
2017-01-02T10:40:05.100Z,3340
2017-01-02T10:41:05.111Z,3340
2017-01-02T10:42:05.060Z,3384
2017-01-02T10:43:05.071Z,3392
2017-01-02T10:44:05.158Z,3376
2017-01-02T10:45:05.013Z,3308
2017-01-02T10:46:05.482Z,3116
2017-01-02T10:47:05.256Z,2980
2017-01-02T10:48:04.953Z,2892
2017-01-02T10:49:04.933Z,2780
2017-01-02T10:50:04.917Z,2740
2017-01-02T10:51:04.898Z,2624
2017-01-02T10:52:04.880Z,2556
2017-01-02T10:53:04.885Z,2472
2017-01-02T10:54:04.972Z,2392
2017-01-02T10:55:04.827Z,2320
2017-01-02T10:56:05.004Z,2324
2017-01-02T10:57:05.082Z,2380
2017-01-02T10:58:05.094Z,2416
2017-01-02T10:59:04.755Z,2400
2017-01-02T11:00:04.736Z,2320
2017-01-02T11:01:04.715Z,2280
2017-01-02T11:02:04.934Z,2304
2017-01-02T11:03:05.001Z,2320
2017-01-02T11:04:04.662Z,2304
2017-01-02T11:05:04.645Z,2320
2017-01-02T11:06:04.625Z,2284
2017-01-02T11:07:04.833Z,2248
2017-01-02T11:08:05.116Z,2228
2017-01-02T11:09:04.577Z,2224
2017-01-02T11:10:04.978Z,2216
2017-01-02T11:11:04.545Z,2196
2017-01-02T11:12:04.524Z,2240
2017-01-02T11:13:04.504Z,2276
2017-01-02T11:14:04.486Z,2276
2017-01-02T11:15:04.584Z,2320
2017-01-02T11:16:04.455Z,2392
2017-01-02T11:17:04.436Z,2452
2017-01-02T11:18:04.411Z,2488
2017-01-02T11:19:04.926Z,2540
2017-01-02T11:20:04.376Z,2528
2017-01-02T11:21:04.357Z,2448
2017-01-02T11:22:04.337Z,2320
2017-01-02T11:23:04.327Z,2192
2017-01-02T11:24:04.303Z,2148
2017-01-02T11:25:04.362Z,2168
2017-01-02T11:26:04.267Z,2188
2017-01-02T11:27:04.251Z,2168
2017-01-02T11:28:04.235Z,2124
2017-01-02T11:29:04.213Z,2080
2017-01-02T11:30:04.197Z,2020
2017-01-02T11:31:04.176Z,1952
2017-01-02T11:32:04.159Z,1788
2017-01-02T11:33:04.167Z,1672
2017-01-02T11:34:04.126Z,1596
2017-01-02T11:35:04.112Z,1544
2017-01-02T11:36:04.084Z,1480
2017-01-02T11:37:04.071Z,1424
2017-01-02T11:38:04.048Z,1440
2017-01-02T11:39:04.034Z,1580
2017-01-02T11:40:04.016Z,1676
2017-01-02T11:41:04.000Z,1700
2017-01-02T11:42:03.977Z,1736
2017-01-02T11:43:03.960Z,1796
2017-01-02T11:44:03.942Z,1860
2017-01-02T11:45:03.929Z,1960
2017-01-02T11:46:03.907Z,2128
2017-01-02T11:47:03.897Z,2184
2017-01-02T11:48:03.870Z,2248
2017-01-02T11:49:03.880Z,2264
2017-01-02T11:50:03.834Z,2164
2017-01-02T11:51:03.819Z,2084
2017-01-02T11:52:03.799Z,2092
2017-01-02T11:53:03.777Z,2120
2017-01-02T11:54:03.764Z,2136
2017-01-02T11:55:03.752Z,2224
2017-01-02T11:56:03.728Z,2356
2017-01-02T11:57:03.718Z,2440
2017-01-02T11:58:03.691Z,2488
2017-01-02T11:59:03.672Z,2492
2017-01-02T12:00:03.659Z,2612
2017-01-02T12:01:03.635Z,2916
2017-01-02T12:02:03.617Z,3176
2017-01-02T12:03:03.601Z,3180
2017-01-02T12:04:03.585Z,2984
2017-01-02T12:05:03.572Z,2780
2017-01-02T12:06:03.546Z,2552
2017-01-02T12:07:03.529Z,2260
2017-01-02T12:08:03.528Z,1948
2017-01-02T12:09:03.495Z,1792
2017-01-02T12:10:03.478Z,1660
2017-01-02T12:11:03.455Z,1448
2017-01-02T12:12:03.444Z,1348
2017-01-02T12:13:03.417Z,1364
2017-01-02T12:14:03.406Z,1300
2017-01-02T12:15:03.415Z,1208
2017-01-02T12:16:03.373Z,1160
2017-01-02T12:17:03.354Z,1164
2017-01-02T12:18:03.333Z,1216
2017-01-02T12:19:03.314Z,1324
2017-01-02T12:20:03.320Z,1416
2017-01-02T12:21:03.279Z,1812
2017-01-02T12:22:03.262Z,2344
2017-01-02T12:23:03.245Z,2624
2017-01-02T12:24:03.222Z,2584
2017-01-02T12:25:03.204Z,2496
2017-01-02T12:26:03.584Z,2432
2017-01-02T12:27:03.171Z,2616
2017-01-02T12:28:03.547Z,2744
2017-01-02T12:29:03.134Z,2744
2017-01-02T12:30:03.128Z,2764
2017-01-02T12:31:03.100Z,2872
2017-01-02T12:32:03.087Z,2724
2017-01-02T12:33:03.064Z,2436
2017-01-02T12:34:03.043Z,2228
2017-01-02T12:35:03.027Z,2240
2017-01-02T12:36:03.015Z,2340
2017-01-02T12:37:02.996Z,2592
2017-01-02T12:38:02.976Z,2852
2017-01-02T12:39:02.956Z,2980
2017-01-02T12:40:02.938Z,3132
2017-01-02T12:41:02.919Z,3256
2017-01-02T12:42:02.904Z,3084
2017-01-02T12:43:02.891Z,2804
2017-01-02T12:44:02.875Z,2748
2017-01-02T12:45:02.851Z,3208
2017-01-02T12:46:03.268Z,3560
2017-01-02T12:47:02.817Z,3476
2017-01-02T12:48:02.803Z,3380
2017-01-02T12:49:02.789Z,3304
2017-01-02T12:50:02.766Z,3280
2017-01-02T12:51:02.750Z,3072
2017-01-02T12:52:03.125Z,2932
2017-01-02T12:53:02.713Z,3004
2017-01-02T12:54:02.691Z,3096
2017-01-02T12:55:02.679Z,2916
2017-01-02T12:56:02.664Z,2736
2017-01-02T12:57:02.648Z,2688
2017-01-02T12:58:03.027Z,2628
2017-01-02T12:59:02.608Z,2540
2017-01-02T13:00:02.594Z,2496
2017-01-02T13:01:02.576Z,2568
2017-01-02T13:02:02.560Z,2616
2017-01-02T13:03:02.541Z,2512
2017-01-02T13:04:02.522Z,2228
2017-01-02T13:05:02.507Z,2132
2017-01-02T13:06:02.490Z,2188
2017-01-02T13:07:02.471Z,2220
2017-01-02T13:08:02.453Z,2184
2017-01-02T13:09:02.839Z,2120
2017-01-02T13:10:02.420Z,2080
2017-01-02T13:11:02.403Z,2104
2017-01-02T13:12:02.386Z,2124
2017-01-02T13:13:02.370Z,2100
2017-01-02T13:14:02.351Z,2084
2017-01-02T13:15:02.334Z,2104
2017-01-02T13:16:02.320Z,2164
2017-01-02T13:17:02.334Z,2112
2017-01-02T13:18:02.290Z,2096
2017-01-02T13:19:02.263Z,2100
2017-01-02T13:20:02.249Z,2060
2017-01-02T13:21:02.234Z,2052
2017-01-02T13:22:02.217Z,2096
2017-01-02T13:23:02.196Z,2080
2017-01-02T13:24:02.580Z,2108
2017-01-02T13:25:02.561Z,2144
2017-01-02T13:26:02.145Z,2068
2017-01-02T13:27:02.125Z,2096
2017-01-02T13:28:02.109Z,2120
2017-01-02T13:29:02.491Z,2144
2017-01-02T13:30:02.077Z,2128
2017-01-02T13:31:02.055Z,2112
2017-01-02T13:32:02.051Z,2076
2017-01-02T13:33:02.033Z,2056
2017-01-02T13:34:02.010Z,1920
2017-01-02T13:35:01.988Z,1904
2017-01-02T13:36:01.973Z,1912
2017-01-02T13:37:01.955Z,1852
2017-01-02T13:38:01.939Z,1768
2017-01-02T13:39:01.923Z,1764
2017-01-02T13:40:01.903Z,1828
2017-01-02T13:41:01.885Z,1848
2017-01-02T13:42:01.872Z,1828
2017-01-02T13:43:01.852Z,1916
2017-01-02T13:44:01.835Z,2180
2017-01-02T13:45:01.820Z,2060
2017-01-02T13:46:01.802Z,1976
2017-01-02T13:47:01.787Z,1944
2017-01-02T13:48:01.769Z,2008
2017-01-02T13:49:01.748Z,2060
2017-01-02T13:50:01.730Z,2084
2017-01-02T13:51:01.711Z,1892
2017-01-02T13:52:01.707Z,1676
2017-01-02T13:53:01.682Z,1652
2017-01-02T13:54:01.659Z,1604
2017-01-02T13:55:01.647Z,1568
2017-01-02T13:56:01.638Z,1676
2017-01-02T13:57:01.612Z,1640
2017-01-02T13:58:01.594Z,1508
2017-01-02T13:59:01.579Z,1484
2017-01-02T14:00:01.563Z,1456
2017-01-02T14:01:01.542Z,1300
2017-01-02T14:02:01.531Z,1228
2017-01-02T14:03:01.510Z,1224
2017-01-02T14:04:01.497Z,1236
2017-01-02T14:05:01.476Z,1220